Terminal Aerodrome Forecast
Issued by NWS Wilmington, OH

Current Version | Previous Version | Graphics & Text | Print | Product List | Glossary On
Versions: 1 2 3 4 5 6 7 8 9 10 11 12 13 14 15 16 17 18 19 20 21 22 23 24 25
000
FTUS41 KILN 240400 AAB
TAFDAY
TAF AMD
KDAY 240436Z 2405/2424 17015G25KT P6SM SCT008 OVC012
      TEMPO 2405/2408 5SM -SHRA BKN008
     FM240800 21015G25KT P6SM VCSH BKN008 OVC012
     FM241200 21018G32KT 5SM -SHRA BR SCT012 OVC022
     FM241600 24026G40KT 5SM -SHRA BR SCT012 OVC022
     FM241800 24024G36KT P6SM VCSH BKN025=

USA.gov is the U.S. government's official web portal to all federal, state and local government web resources and services.